createdAt,value
2018-07-21T00:02:37.177Z,18.80
2018-07-21T00:05:09.580Z,18.80
2018-07-21T00:07:42.439Z,18.70
2018-07-21T00:10:14.859Z,18.70
2018-07-21T00:12:47.588Z,18.70
2018-07-21T00:15:19.974Z,18.70
2018-07-21T00:17:52.392Z,18.70
2018-07-21T00:20:24.935Z,18.60
2018-07-21T00:22:57.706Z,18.50
2018-07-21T00:28:02.907Z,18.60
2018-07-21T00:30:35.693Z,18.50
2018-07-21T00:33:08.164Z,18.50
2018-07-21T00:35:40.609Z,18.50
2018-07-21T00:38:13.137Z,18.50
2018-07-21T00:40:45.615Z,18.50
2018-07-21T00:50:55.357Z,18.40
2018-07-21T00:53:30.871Z,18.40
2018-07-21T00:56:03.592Z,18.40
2018-07-21T00:58:35.960Z,18.30
2018-07-21T01:01:08.507Z,18.20
2018-07-21T01:03:40.903Z,18.10
2018-07-21T01:06:13.573Z,18.10
2018-07-21T01:11:18.392Z,18.00
2018-07-21T01:13:50.814Z,18.00
2018-07-21T01:18:55.665Z,18.00
2018-07-21T01:24:03.648Z,18.00
2018-07-21T01:26:36.097Z,18.00
2018-07-21T01:29:08.597Z,18.00
2018-07-21T01:31:41.160Z,18.00
2018-07-21T01:36:46.469Z,17.70
2018-07-21T01:39:18.994Z,17.70
2018-07-21T01:41:51.516Z,17.60
2018-07-21T01:44:23.978Z,17.60
2018-07-21T01:46:56.464Z,17.50
2018-07-21T01:49:28.943Z,17.60
2018-07-21T01:52:01.630Z,17.60
2018-07-21T01:54:34.351Z,17.50
2018-07-21T01:57:06.786Z,17.50
2018-07-21T01:59:39.259Z,17.50
2018-07-21T02:02:12.629Z,17.60
2018-07-21T02:04:45.041Z,17.60
2018-07-21T02:07:17.547Z,17.50
2018-07-21T02:09:49.992Z,17.60
2018-07-21T02:12:22.705Z,17.40
2018-07-21T02:14:57.495Z,17.30
2018-07-21T02:17:32.073Z,17.20
2018-07-21T02:20:05.468Z,17.20
2018-07-21T02:22:37.974Z,17.20
2018-07-21T02:25:10.556Z,17.10
2018-07-21T02:27:43.388Z,17.20
2018-07-21T02:30:15.844Z,17.10
2018-07-21T02:32:48.263Z,17.10
2018-07-21T02:40:25.542Z,17.10
2018-07-21T02:42:58.418Z,17.10
2018-07-21T02:45:31.215Z,17.10
2018-07-21T02:50:36.194Z,17.00
2018-07-21T02:53:09.498Z,17.00
2018-07-21T02:55:41.907Z,17.00
2018-07-21T02:58:14.282Z,17.00
2018-07-21T03:00:46.821Z,16.90
2018-07-21T03:03:19.261Z,16.90
2018-07-21T03:05:51.703Z,16.90
2018-07-21T03:08:24.317Z,16.90
2018-07-21T03:10:57.367Z,16.80
2018-07-21T03:13:31.702Z,16.70
2018-07-21T03:16:04.185Z,16.60
2018-07-21T03:18:36.648Z,16.60
2018-07-21T03:21:09.251Z,16.60
2018-07-21T03:23:41.755Z,16.60
2018-07-21T03:26:14.171Z,16.50
2018-07-21T03:28:46.700Z,16.50
2018-07-21T03:31:19.278Z,16.50
2018-07-21T03:33:51.717Z,16.50
2018-07-21T03:36:24.239Z,16.50
2018-07-21T03:38:56.679Z,16.50
2018-07-21T03:41:29.119Z,16.70
2018-07-21T03:44:01.638Z,16.70
2018-07-21T03:46:34.298Z,16.80
2018-07-21T03:49:06.710Z,16.80
2018-07-21T03:51:39.106Z,16.80
2018-07-21T03:54:11.505Z,16.80
2018-07-21T03:56:43.924Z,16.70
2018-07-21T03:59:16.339Z,16.70
2018-07-21T04:01:48.753Z,16.90
2018-07-21T04:04:21.130Z,16.90
2018-07-21T04:06:54.589Z,16.90
2018-07-21T04:09:26.973Z,16.90
2018-07-21T04:11:59.664Z,17.00
2018-07-21T04:14:32.024Z,16.80
2018-07-21T04:17:04.434Z,16.90
2018-07-21T04:19:36.870Z,17.00
2018-07-21T04:22:09.269Z,16.90
2018-07-21T04:24:41.692Z,17.00
2018-07-21T04:27:14.562Z,17.00
2018-07-21T04:29:49.069Z,17.10
2018-07-21T04:32:21.765Z,17.10
2018-07-21T04:34:54.150Z,17.20
2018-07-21T04:37:26.586Z,17.30
2018-07-21T04:39:58.975Z,17.30
2018-07-21T04:42:31.425Z,17.30
2018-07-21T04:45:03.888Z,17.50
2018-07-21T04:47:36.522Z,17.60
2018-07-21T04:50:09.034Z,17.60
2018-07-21T04:52:41.631Z,17.60
2018-07-21T04:55:14.251Z,17.70
2018-07-21T04:57:46.677Z,17.70
2018-07-21T05:00:19.042Z,17.80
2018-07-21T05:02:51.458Z,17.80
2018-07-21T05:05:23.907Z,17.80
2018-07-21T05:07:56.608Z,18.00
2018-07-21T05:10:29.071Z,18.10
2018-07-21T05:13:01.560Z,18.10
2018-07-21T05:15:33.937Z,18.10
2018-07-21T05:18:06.759Z,18.30
2018-07-21T05:20:39.233Z,18.40
2018-07-21T05:23:11.709Z,18.40
2018-07-21T05:28:16.892Z,18.70
2018-07-21T05:33:21.744Z,18.90
2018-07-21T05:35:54.119Z,18.80
2018-07-21T05:38:26.499Z,19.00
2018-07-21T05:40:58.872Z,19.10
2018-07-21T05:43:31.340Z,19.10
2018-07-21T05:46:03.760Z,19.20
2018-07-21T05:48:36.670Z,19.20
2018-07-21T05:51:09.107Z,19.20
2018-07-21T05:53:41.617Z,19.30
2018-07-21T05:56:14.042Z,19.40
2018-07-21T05:58:46.715Z,19.40
2018-07-21T06:01:19.305Z,19.60
2018-07-21T06:03:51.802Z,19.60
2018-07-21T06:06:24.373Z,19.70
2018-07-21T06:08:56.884Z,19.80
2018-07-21T06:11:29.337Z,20.00
2018-07-21T06:16:34.208Z,20.00
2018-07-21T06:19:06.663Z,20.00
2018-07-21T06:21:39.366Z,20.10
2018-07-21T06:24:11.876Z,20.10
2018-07-21T06:26:44.482Z,20.20
2018-07-21T06:29:16.963Z,20.30
2018-07-21T06:31:49.382Z,20.30
2018-07-21T06:34:21.918Z,20.30
2018-07-21T06:36:54.320Z,20.40
2018-07-21T06:39:26.815Z,20.40
2018-07-21T06:41:59.288Z,20.40
2018-07-21T06:44:31.817Z,20.50
2018-07-21T06:47:05.828Z,20.60
2018-07-21T06:49:38.270Z,20.60
2018-07-21T06:52:10.869Z,20.70
2018-07-21T06:54:43.407Z,20.70
2018-07-21T06:57:15.808Z,20.70
2018-07-21T06:59:48.283Z,20.80
2018-07-21T07:04:53.274Z,20.90
2018-07-21T07:07:26.900Z,21.00
2018-07-21T07:09:59.594Z,21.00
2018-07-21T07:12:32.201Z,21.10
2018-07-21T07:15:04.914Z,21.10
2018-07-21T07:17:37.590Z,21.30
2018-07-21T07:20:10.569Z,21.30
2018-07-21T07:22:43.019Z,21.40
2018-07-21T07:25:15.509Z,21.50
2018-07-21T07:27:48.843Z,21.60
2018-07-21T07:30:21.434Z,21.60
2018-07-21T07:32:53.897Z,21.70
2018-07-21T07:35:26.358Z,21.80
2018-07-21T07:37:58.777Z,21.90
2018-07-21T07:40:31.200Z,22.00
2018-07-21T07:43:03.720Z,22.00
2018-07-21T07:45:36.175Z,22.00
2018-07-21T07:48:08.693Z,22.10
2018-07-21T07:53:13.600Z,22.20
2018-07-21T07:55:46.044Z,22.30
2018-07-21T07:58:18.474Z,22.30
2018-07-21T08:00:50.957Z,22.40
2018-07-21T08:03:23.461Z,22.40
2018-07-21T08:05:55.911Z,22.50
2018-07-21T08:08:30.271Z,22.70
2018-07-21T08:13:35.194Z,22.70
2018-07-21T08:16:07.635Z,22.80
2018-07-21T08:18:40.050Z,22.80
2018-07-21T08:21:12.902Z,22.80
2018-07-21T08:23:45.352Z,22.90
2018-07-21T08:26:17.774Z,22.80
2018-07-21T08:28:51.898Z,22.80
2018-07-21T08:31:24.357Z,22.70
2018-07-21T08:33:56.804Z,22.80
2018-07-21T08:36:29.286Z,23.00
2018-07-21T08:39:01.822Z,23.00
2018-07-21T08:41:34.396Z,23.00
2018-07-21T08:44:07.120Z,23.00
2018-07-21T08:46:39.552Z,23.10
2018-07-21T08:51:44.428Z,23.20
2018-07-21T08:54:16.864Z,23.20
2018-07-21T08:56:49.307Z,23.20
2018-07-21T08:59:21.843Z,23.10
2018-07-21T09:01:54.307Z,23.30
2018-07-21T09:04:26.851Z,23.40
2018-07-21T09:06:59.240Z,23.60
2018-07-21T09:09:32.036Z,23.60
2018-07-21T09:12:04.513Z,23.70
2018-07-21T09:14:36.920Z,23.70
2018-07-21T09:17:09.372Z,23.70
2018-07-21T09:19:41.885Z,23.80
2018-07-21T09:22:14.329Z,23.80
2018-07-21T09:24:47.171Z,23.80
2018-07-21T09:27:19.584Z,23.80
2018-07-21T09:29:52.097Z,23.90
2018-07-21T09:32:24.521Z,23.90
2018-07-21T09:34:56.926Z,23.90
2018-07-21T09:37:29.656Z,23.90
2018-07-21T09:40:02.061Z,24.00
2018-07-21T09:42:34.807Z,24.20
2018-07-21T09:45:07.238Z,24.10
2018-07-21T09:47:39.687Z,24.20
2018-07-21T09:50:13.046Z,24.40
2018-07-21T09:52:45.797Z,24.30
2018-07-21T09:55:18.274Z,24.40
2018-07-21T09:57:50.805Z,24.70
2018-07-21T10:00:28.909Z,24.80
2018-07-21T10:03:01.480Z,24.90
2018-07-21T10:05:33.964Z,24.90
2018-07-21T10:08:06.396Z,24.60
2018-07-21T10:10:38.825Z,24.80
2018-07-21T10:13:11.276Z,25.10
2018-07-21T10:15:43.981Z,25.00
2018-07-21T10:18:16.446Z,25.00
2018-07-21T10:20:48.930Z,25.10
2018-07-21T10:23:21.421Z,25.00
2018-07-21T10:25:59.428Z,24.80
2018-07-21T10:28:37.685Z,24.80
2018-07-21T10:31:10.362Z,24.80
2018-07-21T10:33:42.946Z,25.00
2018-07-21T10:36:15.461Z,25.20
2018-07-21T10:38:47.884Z,25.30
2018-07-21T10:41:20.335Z,25.30
2018-07-21T10:43:52.781Z,25.40
2018-07-21T10:46:25.927Z,25.10
2018-07-21T10:48:58.391Z,24.90
2018-07-21T10:51:32.172Z,25.00
2018-07-21T10:54:05.139Z,25.20
2018-07-21T10:56:37.626Z,25.20
2018-07-21T10:59:10.083Z,25.30
2018-07-21T11:01:42.626Z,25.50
2018-07-21T11:04:15.092Z,25.60
2018-07-21T11:06:47.926Z,25.90
2018-07-21T11:09:20.306Z,25.80
2018-07-21T11:11:53.728Z,25.70
2018-07-21T11:14:26.200Z,25.40
2018-07-21T11:16:58.739Z,25.60
2018-07-21T11:19:31.251Z,25.70
2018-07-21T11:22:03.858Z,25.70
2018-07-21T11:24:36.277Z,25.80
2018-07-21T11:27:08.709Z,26.10
2018-07-21T11:29:41.236Z,25.90
2018-07-21T11:32:13.943Z,25.90
2018-07-21T11:34:46.390Z,26.00
2018-07-21T11:37:18.863Z,26.10
2018-07-21T11:39:51.819Z,26.00
2018-07-21T11:42:24.330Z,26.00
2018-07-21T11:44:56.749Z,25.90
2018-07-21T11:47:29.272Z,25.90
2018-07-21T11:50:01.737Z,25.80
2018-07-21T11:52:34.255Z,26.00
2018-07-21T11:55:06.850Z,26.60
2018-07-21T11:57:39.274Z,27.30
2018-07-21T12:02:44.167Z,27.70
2018-07-21T12:05:16.628Z,27.40
2018-07-21T12:07:49.221Z,27.50
2018-07-21T12:10:21.641Z,27.50
2018-07-21T12:12:54.155Z,27.30
2018-07-21T12:15:26.684Z,26.80
2018-07-21T12:17:59.129Z,26.30
2018-07-21T12:20:31.652Z,26.30
2018-07-21T12:23:04.426Z,26.30
2018-07-21T12:25:37.353Z,26.50
2018-07-21T12:28:10.511Z,26.50
2018-07-21T12:30:42.989Z,26.60
2018-07-21T12:33:15.534Z,26.80
2018-07-21T12:35:47.966Z,26.90
2018-07-21T12:38:20.424Z,27.00
2018-07-21T12:40:52.853Z,26.90
2018-07-21T12:43:25.282Z,27.00
2018-07-21T12:45:57.706Z,27.00
2018-07-21T12:48:30.224Z,26.70
2018-07-21T12:51:02.737Z,26.80
2018-07-21T12:53:35.502Z,26.80
2018-07-21T12:56:08.075Z,26.90
2018-07-21T12:58:40.531Z,26.90
2018-07-21T13:01:13.021Z,27.00
2018-07-21T13:03:45.466Z,27.10
2018-07-21T13:06:17.990Z,27.00
2018-07-21T13:08:50.846Z,27.00
2018-07-21T13:11:23.520Z,27.10
2018-07-21T13:13:56.175Z,26.90
2018-07-21T13:16:28.612Z,27.10
2018-07-21T13:19:01.027Z,27.00
2018-07-21T13:21:33.834Z,27.10
2018-07-21T13:24:06.402Z,27.10
2018-07-21T13:26:39.555Z,26.80
2018-07-21T13:29:12.112Z,26.90
2018-07-21T13:31:44.527Z,27.00
2018-07-21T13:34:16.997Z,27.20
2018-07-21T13:36:49.489Z,27.30
2018-07-21T13:39:22.045Z,27.50
2018-07-21T13:41:54.533Z,27.40
2018-07-21T13:44:27.039Z,27.20
2018-07-21T13:46:59.547Z,27.30
2018-07-21T13:49:32.069Z,27.40
2018-07-21T13:52:04.725Z,27.40
2018-07-21T13:54:37.195Z,27.50
2018-07-21T13:57:09.704Z,27.60
2018-07-21T13:59:42.205Z,27.40
2018-07-21T14:02:14.896Z,27.20
2018-07-21T14:04:47.326Z,27.20
2018-07-21T14:07:19.731Z,27.10
2018-07-21T14:09:52.286Z,27.10
2018-07-21T14:12:25.030Z,27.20
2018-07-21T14:14:57.538Z,27.10
2018-07-21T14:17:30.312Z,27.00
2018-07-21T14:20:03.158Z,27.00
2018-07-21T14:22:35.573Z,27.10
2018-07-21T14:25:08.023Z,27.00
2018-07-21T14:27:41.707Z,27.10
2018-07-21T14:30:14.271Z,27.20
2018-07-21T14:32:47.012Z,27.10
2018-07-21T14:35:19.774Z,27.00
2018-07-21T14:37:52.431Z,27.10
2018-07-21T14:40:24.888Z,27.00
2018-07-21T14:42:57.813Z,26.80
2018-07-21T14:45:30.692Z,26.70
2018-07-21T14:48:03.346Z,26.70
2018-07-21T14:50:36.139Z,26.80
2018-07-21T14:53:08.901Z,26.90
2018-07-21T14:55:41.585Z,27.00
2018-07-21T14:58:14.113Z,27.00
2018-07-21T15:00:46.731Z,26.90
2018-07-21T15:03:19.112Z,26.90
2018-07-21T15:05:51.603Z,27.10
2018-07-21T15:08:24.208Z,27.30
2018-07-21T15:10:56.917Z,27.00
2018-07-21T15:13:30.002Z,26.80
2018-07-21T15:16:04.277Z,26.70
2018-07-21T15:18:37.021Z,26.70
2018-07-21T15:21:09.838Z,26.70
2018-07-21T15:23:43.255Z,26.80
2018-07-21T15:26:15.917Z,26.70
2018-07-21T15:28:48.561Z,26.70
2018-07-21T15:31:21.132Z,26.80
2018-07-21T15:33:53.757Z,26.60
2018-07-21T15:36:26.306Z,26.80
2018-07-21T15:38:58.972Z,26.90
2018-07-21T15:41:31.605Z,26.90
2018-07-21T15:44:04.243Z,26.80
2018-07-21T15:46:36.685Z,26.70
2018-07-21T15:49:09.341Z,26.80
2018-07-21T15:51:41.864Z,26.80
2018-07-21T15:54:14.557Z,27.00
2018-07-21T15:56:47.233Z,26.90
2018-07-21T15:59:20.060Z,26.80
2018-07-21T16:01:52.721Z,26.70
2018-07-21T16:04:25.442Z,26.50
2018-07-21T16:06:58.161Z,26.40
2018-07-21T16:09:30.931Z,26.40
2018-07-21T16:12:03.395Z,26.50
2018-07-21T16:14:35.900Z,26.50
2018-07-21T16:17:09.313Z,26.60
2018-07-21T16:19:41.773Z,26.70
2018-07-21T16:22:14.238Z,26.60
2018-07-21T16:24:46.875Z,26.60
2018-07-21T16:27:19.521Z,26.50
2018-07-21T16:29:52.940Z,26.40
2018-07-21T16:32:25.600Z,26.20
2018-07-21T16:34:58.247Z,26.10
2018-07-21T16:37:30.888Z,26.20
2018-07-21T16:40:03.383Z,26.10
2018-07-21T16:42:36.105Z,26.10
2018-07-21T16:45:08.769Z,26.10
2018-07-21T16:47:41.338Z,26.00
2018-07-21T16:50:13.902Z,26.00
2018-07-21T16:52:46.978Z,26.00
2018-07-21T16:57:52.601Z,25.80
2018-07-21T17:00:25.268Z,25.70
2018-07-21T17:02:57.912Z,25.70
2018-07-21T17:05:30.593Z,25.60
2018-07-21T17:08:04.090Z,25.60
2018-07-21T17:10:36.570Z,25.60
2018-07-21T17:13:09.557Z,25.50
2018-07-21T17:15:42.548Z,25.50
2018-07-21T17:18:16.458Z,25.40
2018-07-21T17:20:49.160Z,25.40
2018-07-21T17:23:22.165Z,25.30
2018-07-21T17:25:54.705Z,25.30
2018-07-21T17:28:27.519Z,25.20
2018-07-21T17:31:00.155Z,25.20
2018-07-21T17:33:33.346Z,25.20
2018-07-21T17:36:05.949Z,25.20
2018-07-21T17:38:42.126Z,25.10
2018-07-21T17:41:15.252Z,25.10
2018-07-21T17:43:47.889Z,25.10
2018-07-21T17:46:20.631Z,25.00
2018-07-21T17:48:53.440Z,25.10
2018-07-21T17:51:26.279Z,25.10
2018-07-21T17:53:58.905Z,25.10
2018-07-21T17:56:31.900Z,25.10
2018-07-21T17:59:04.650Z,25.20
2018-07-21T18:01:37.376Z,25.20
2018-07-21T18:04:09.928Z,25.20
2018-07-21T18:06:42.409Z,25.20
2018-07-21T18:09:15.036Z,25.10
2018-07-21T18:11:48.129Z,25.10
2018-07-21T18:14:21.419Z,25.00
2018-07-21T18:16:54.142Z,24.90
2018-07-21T18:21:59.684Z,24.80
2018-07-21T18:24:32.555Z,24.80
2018-07-21T18:27:05.432Z,24.70
2018-07-21T18:29:38.150Z,24.70
2018-07-21T18:32:10.885Z,24.70
2018-07-21T18:34:43.742Z,24.60
2018-07-21T18:37:17.092Z,24.50
2018-07-21T18:39:50.599Z,24.50
2018-07-21T18:42:23.772Z,24.40
2018-07-21T18:44:56.500Z,24.30
2018-07-21T18:47:30.259Z,24.30
2018-07-21T18:50:04.181Z,24.20
2018-07-21T18:52:37.371Z,24.10
2018-07-21T18:55:10.623Z,24.10
2018-07-21T18:57:44.665Z,24.00
2018-07-21T19:00:18.848Z,23.90
2018-07-21T19:02:52.608Z,23.80
2018-07-21T19:05:25.547Z,23.70
2018-07-21T19:10:30.925Z,23.70
2018-07-21T19:13:03.632Z,23.70
2018-07-21T19:15:42.492Z,23.60
2018-07-21T19:18:15.641Z,23.60
2018-07-21T19:20:54.247Z,23.50
2018-07-21T19:23:27.410Z,23.50
2018-07-21T19:26:05.994Z,23.40
2018-07-21T19:28:39.104Z,23.40
2018-07-21T19:31:12.242Z,23.30
2018-07-21T19:33:46.601Z,23.30
2018-07-21T19:38:53.408Z,23.10
2018-07-21T19:41:32.078Z,23.10
2018-07-21T19:44:05.371Z,23.10
2018-07-21T19:46:38.430Z,23.00
2018-07-21T19:49:11.557Z,23.00
2018-07-21T19:51:44.904Z,23.00
2018-07-21T19:54:18.102Z,23.00
2018-07-21T19:56:51.307Z,23.00
2018-07-21T19:59:24.445Z,23.00
2018-07-21T20:01:57.453Z,22.90
2018-07-21T20:04:30.164Z,22.90
2018-07-21T20:07:02.694Z,22.80
2018-07-21T20:09:35.433Z,22.80
2018-07-21T20:12:08.470Z,22.70
2018-07-21T20:14:41.200Z,22.60
2018-07-21T20:17:13.967Z,22.60
2018-07-21T20:19:46.643Z,22.60
2018-07-21T20:22:20.915Z,22.60
2018-07-21T20:24:53.875Z,22.60
2018-07-21T20:27:26.840Z,22.50
2018-07-21T20:30:00.427Z,22.40
2018-07-21T20:32:33.474Z,22.40
2018-07-21T20:35:08.458Z,22.40
2018-07-21T20:37:41.817Z,22.30
2018-07-21T20:40:14.446Z,22.30
2018-07-21T20:42:48.474Z,22.30
2018-07-21T20:45:21.237Z,22.30
2018-07-21T20:47:54.283Z,22.30
2018-07-21T20:50:27.064Z,22.30
2018-07-21T20:53:00.429Z,22.30
2018-07-21T20:55:33.878Z,22.20
2018-07-21T20:58:07.009Z,22.10
2018-07-21T21:00:39.552Z,22.10
2018-07-21T21:03:13.230Z,22.10
2018-07-21T21:05:46.477Z,22.10
2018-07-21T21:08:19.618Z,21.90
2018-07-21T21:13:25.306Z,21.90
2018-07-21T21:15:58.019Z,22.00
2018-07-21T21:18:30.563Z,21.80
2018-07-21T21:21:03.507Z,21.80
2018-07-21T21:23:36.158Z,21.90
2018-07-21T21:26:08.748Z,21.80
2018-07-21T21:28:41.329Z,21.70
2018-07-21T21:31:13.886Z,21.70
2018-07-21T21:33:46.446Z,21.70
2018-07-21T21:36:19.127Z,21.60
2018-07-21T21:38:51.793Z,21.70
2018-07-21T21:41:24.540Z,21.70
2018-07-21T21:43:57.204Z,21.70
2018-07-21T21:46:29.964Z,21.60
2018-07-21T21:49:02.576Z,21.70
2018-07-21T21:51:35.236Z,21.50
2018-07-21T21:54:09.230Z,21.50
2018-07-21T21:56:41.983Z,21.50
2018-07-21T21:59:14.730Z,21.50
2018-07-21T22:01:47.345Z,21.50
2018-07-21T22:04:20.213Z,21.50
2018-07-21T22:06:52.829Z,21.50
2018-07-21T22:11:58.814Z,21.60
2018-07-21T22:14:31.562Z,21.50
2018-07-21T22:17:04.334Z,21.50
2018-07-21T22:19:37.079Z,21.50
2018-07-21T22:22:09.781Z,21.50
2018-07-21T22:24:42.584Z,21.40
2018-07-21T22:27:15.481Z,21.40
2018-07-21T22:29:48.081Z,21.40
2018-07-21T22:32:21.246Z,21.50
2018-07-21T22:34:53.870Z,21.50
2018-07-21T22:37:26.602Z,21.50
2018-07-21T22:39:59.376Z,21.50
2018-07-21T22:42:31.949Z,21.60
2018-07-21T22:45:05.139Z,21.60
2018-07-21T22:47:37.807Z,21.50
2018-07-21T22:52:43.166Z,21.50
2018-07-21T22:55:15.861Z,21.50
2018-07-21T22:57:48.622Z,21.50
2018-07-21T23:00:21.418Z,21.50
2018-07-21T23:02:54.396Z,21.50
2018-07-21T23:05:27.113Z,21.50
2018-07-21T23:08:00.074Z,21.50
2018-07-21T23:10:32.714Z,21.50
2018-07-21T23:13:05.480Z,21.50
2018-07-21T23:15:38.311Z,21.40
2018-07-21T23:18:11.230Z,21.50
2018-07-21T23:20:43.703Z,21.40
2018-07-21T23:23:16.745Z,21.40
2018-07-21T23:25:49.485Z,21.40
2018-07-21T23:28:21.917Z,21.40
2018-07-21T23:30:54.382Z,21.40
2018-07-21T23:33:26.986Z,21.40
2018-07-21T23:35:59.601Z,21.40
2018-07-21T23:38:33.247Z,21.40
2018-07-21T23:41:05.950Z,21.40
2018-07-21T23:43:39.207Z,21.40
2018-07-21T23:48:44.334Z,21.20
2018-07-21T23:51:17.014Z,21.20
2018-07-21T23:53:49.875Z,21.20
2018-07-21T23:56:23.205Z,21.20
2018-07-21T23:58:55.762Z,21.20
